Time;durP1;ratioP1;P1;durP2;ratioP2;P2;SDS_P1;SDS_P2;PMS_P1;PMS_P2;Temp;Humidity;BMP_temperature;BMP_pressure;BME280_temperature;BME280_humidity;BME280_pressure;Samples;Min_cycle;Max_cycle;Signal;HPM_P1;HPM_P2
2023/04/18 00:01:17;;;;;;;65.13;20.52;;;5.20;99.90;;;;;;4920390;29;20051;-73
2023/04/18 00:03:45;;;;;;;94.25;23.33;;;5.10;99.90;;;;;;4934357;29;20516;-73
2023/04/18 00:06:13;;;;;;;79.90;23.65;;;5.20;99.90;;;;;;4930468;28;20138;-73
2023/04/18 00:08:41;;;;;;;86.82;24.90;;;5.10;99.90;;;;;;4950682;29;20058;-73
2023/04/18 00:11:10;;;;;;;73.68;23.73;;;5.10;99.90;;;;;;4952466;29;20059;-73
2023/04/18 00:13:38;;;;;;;69.63;22.67;;;5.10;99.90;;;;;;4953777;28;20062;-74
2023/04/18 00:16:09;;;;;;;69.97;22.50;;;5.00;99.90;;;;;;4952425;29;20141;-73
2023/04/18 00:18:36;;;;;;;80.57;23.90;;;5.00;99.90;;;;;;4952681;29;20050;-74
2023/04/18 00:21:04;;;;;;;75.97;21.85;;;5.00;99.90;;;;;;4920590;29;20047;-73
2023/04/18 00:23:33;;;;;;;67.43;21.92;;;5.00;99.90;;;;;;4953553;29;20047;-73
2023/04/18 00:26:01;;;;;;;83.00;24.02;;;5.00;99.90;;;;;;4919342;29;20584;-74
2023/04/18 00:28:29;;;;;;;76.15;21.40;;;5.00;99.90;;;;;;4953611;29;20090;-73
2023/04/18 00:30:57;;;;;;;86.03;21.65;;;4.90;99.90;;;;;;4953268;29;20066;-73
2023/04/18 00:33:24;;;;;;;71.00;20.13;;;4.90;99.90;;;;;;4953742;28;20051;-73
2023/04/18 00:35:53;;;;;;;76.28;21.98;;;4.90;99.90;;;;;;4952395;29;20062;-73
2023/04/18 00:38:21;;;;;;;90.97;23.50;;;4.90;99.90;;;;;;4936420;29;20058;-73
2023/04/18 00:40:51;;;;;;;77.90;22.10;;;4.80;99.90;;;;;;4935558;29;20062;-74
2023/04/18 00:43:22;;;;;;;77.75;22.85;;;4.80;99.90;;;;;;4936686;29;20055;-73
2023/04/18 00:45:51;;;;;;;82.22;22.70;;;4.80;99.90;;;;;;4936274;29;20058;-73
2023/04/18 00:48:19;;;;;;;82.63;22.35;;;4.80;99.90;;;;;;4950737;29;20077;-73
2023/04/18 00:50:46;;;;;;;77.57;22.88;;;4.80;99.90;;;;;;4952068;28;20051;-73
2023/04/18 00:53:14;;;;;;;66.35;21.42;;;4.80;99.90;;;;;;4952552;28;20551;-73
2023/04/18 00:55:42;;;;;;;78.78;24.15;;;4.80;99.90;;;;;;4952322;29;20059;-73
2023/04/18 00:58:09;;;;;;;67.82;20.23;;;4.80;99.90;;;;;;4953998;29;20551;-73
2023/04/18 01:00:37;;;;;;;84.53;20.52;;;4.80;99.90;;;;;;4952420;29;20062;-73
2023/04/18 01:03:26;;;;;;;70.90;22.58;;;4.70;99.90;;;;;;4953400;29;20081;-72
2023/04/18 01:05:54;;;;;;;77.97;22.98;;;4.70;99.90;;;;;;4918720;29;20047;-73
2023/04/18 01:08:22;;;;;;;60.80;21.30;;;4.70;99.90;;;;;;4937987;29;20070;-72
2023/04/18 01:10:50;;;;;;;71.30;20.55;;;4.70;99.90;;;;;;4953396;29;20125;-74
2023/04/18 01:13:19;;;;;;;60.72;20.20;;;4.70;99.90;;;;;;4951186;29;20144;-73
2023/04/18 01:15:52;;;;;;;64.57;19.92;;;4.80;99.90;;;;;;4936095;29;20099;-73
2023/04/18 01:18:21;;;;;;;47.97;19.00;;;4.80;99.90;;;;;;4936290;28;20050;-73
2023/04/18 01:20:51;;;;;;;47.50;18.75;;;4.80;99.90;;;;;;4934059;29;20109;-73
2023/04/18 01:23:21;;;;;;;39.55;18.90;;;4.90;99.90;;;;;;4951403;29;20440;-73
2023/04/18 01:25:50;;;;;;;46.40;18.70;;;4.90;99.90;;;;;;4939337;29;20520;-79
2023/04/18 01:28:21;;;;;;;31.42;16.90;;;4.90;99.90;;;;;;4935117;29;20167;-78
2023/04/18 01:30:49;;;;;;;33.33;17.17;;;5.00;99.90;;;;;;4931151;29;20146;-78
2023/04/18 01:33:16;;;;;;;36.00;16.55;;;5.00;99.90;;;;;;4950957;28;20102;-79
2023/04/18 01:35:48;;;;;;;36.75;16.65;;;5.00;99.90;;;;;;4952101;28;20062;-79
2023/04/18 01:38:16;;;;;;;40.17;16.63;;;5.10;99.90;;;;;;4952952;29;20297;-79
2023/04/18 01:40:44;;;;;;;32.65;16.27;;;5.10;99.90;;;;;;4949859;29;20055;-80
2023/04/18 01:43:13;;;;;;;36.85;16.35;;;5.10;99.90;;;;;;4952691;29;20055;-80
2023/04/18 01:45:41;;;;;;;36.85;16.90;;;5.10;99.90;;;;;;4951098;29;20051;-79
2023/04/18 01:48:09;;;;;;;37.13;16.88;;;5.10;99.90;;;;;;4948390;28;20531;-79
2023/04/18 01:50:37;;;;;;;33.15;16.20;;;5.10;99.90;;;;;;4952173;28;20039;-81
2023/04/18 01:53:04;;;;;;;33.33;17.75;;;5.10;99.90;;;;;;4935498;29;20057;-80
2023/04/18 01:55:32;;;;;;;33.78;15.63;;;5.10;99.90;;;;;;4952047;29;20052;-79
2023/04/18 01:57:59;;;;;;;34.03;16.50;;;5.10;99.90;;;;;;4950832;28;20579;-80
2023/04/18 02:00:28;;;;;;;36.55;15.93;;;5.10;99.90;;;;;;4920048;29;20047;-80
2023/04/18 02:02:59;;;;;;;30.15;16.25;;;5.10;99.90;;;;;;4953493;28;20055;-80
2023/04/18 02:05:26;;;;;;;34.25;16.17;;;5.10;99.90;;;;;;4951847;29;20055;-79
2023/04/18 02:07:58;;;;;;;32.28;16.85;;;5.10;99.90;;;;;;4934624;29;21097;-81
2023/04/18 02:10:25;;;;;;;35.17;15.57;;;5.00;99.90;;;;;;4952111;29;20556;-80
2023/04/18 02:12:53;;;;;;;34.33;16.23;;;5.00;99.90;;;;;;4939983;28;20038;-76
2023/04/18 02:15:21;;;;;;;37.17;15.27;;;5.00;99.90;;;;;;4933897;29;20198;-81
2023/04/18 02:17:50;;;;;;;34.22;15.20;;;5.00;99.90;;;;;;4935062;29;20507;-80
2023/04/18 02:20:18;;;;;;;29.55;15.35;;;5.00;99.90;;;;;;4952123;29;20047;-81
2023/04/18 02:22:46;;;;;;;32.58;16.33;;;5.00;99.90;;;;;;4962304;28;20058;-80
2023/04/18 02:25:13;;;;;;;28.95;15.40;;;5.00;99.90;;;;;;4950820;28;20141;-81
2023/04/18 02:27:41;;;;;;;42.20;16.77;;;5.00;99.90;;;;;;4935542;29;20415;-81
2023/04/18 02:30:09;;;;;;;33.42;15.95;;;5.00;99.90;;;;;;4935932;29;20058;-82
2023/04/18 02:32:37;;;;;;;32.72;15.27;;;5.00;99.90;;;;;;4951868;29;20385;-74
2023/04/18 02:35:07;;;;;;;25.58;15.50;;;5.00;99.90;;;;;;4950810;29;20173;-74
2023/04/18 02:37:34;;;;;;;29.15;15.18;;;5.00;99.90;;;;;;4951942;29;20154;-73
2023/04/18 02:40:02;;;;;;;28.25;15.70;;;5.00;99.90;;;;;;4934483;29;20051;-73
2023/04/18 02:42:33;;;;;;;31.05;15.82;;;5.00;99.90;;;;;;4932569;28;20051;-74
2023/04/18 02:45:02;;;;;;;23.95;14.00;;;4.90;99.90;;;;;;4950239;29;20047;-72
2023/04/18 02:47:33;;;;;;;29.27;15.77;;;5.00;99.90;;;;;;4935093;29;20445;-73
2023/04/18 02:50:01;;;;;;;32.00;14.90;;;5.00;99.90;;;;;;4954494;29;20065;-73
2023/04/18 02:52:32;;;;;;;29.33;14.10;;;5.00;99.90;;;;;;4937264;29;20086;-74
2023/04/18 02:55:00;;;;;;;33.85;14.25;;;5.00;99.90;;;;;;4948119;28;20051;-74
2023/04/18 02:57:33;;;;;;;;;;;5.00;99.90;;;;;;4921641;29;20055;-73
2023/04/18 03:00:14;;;;;;;33.67;13.82;;;5.00;99.90;;;;;;4937622;29;19926;-75
2023/04/18 03:03:01;;;;;;;30.02;15.38;;;5.00;99.90;;;;;;4955851;29;20051;-74
2023/04/18 03:05:49;;;;;;;32.05;13.55;;;5.00;99.90;;;;;;4954599;29;20118;-73
2023/04/18 03:08:18;;;;;;;51.92;22.13;;;5.00;99.90;;;;;;4953104;28;20050;-73
2023/04/18 03:10:45;;;;;;;55.70;23.27;;;5.00;99.90;;;;;;4936822;29;20055;-73
2023/04/18 03:13:13;;;;;;;42.08;21.10;;;5.00;99.90;;;;;;4953701;28;20058;-72
2023/04/18 03:15:41;;;;;;;43.95;20.45;;;5.10;99.90;;;;;;4936598;29;20071;-73
2023/04/18 03:18:11;;;;;;;30.63;17.27;;;5.10;99.90;;;;;;4953193;28;20051;-73
2023/04/18 03:20:40;;;;;;;40.20;16.52;;;5.10;99.90;;;;;;4953136;29;20055;-72
2023/04/18 03:23:09;;;;;;;30.70;16.00;;;5.10;99.90;;;;;;4938225;29;20055;-72
2023/04/18 03:25:38;;;;;;;41.97;16.67;;;5.20;99.90;;;;;;4952935;28;20057;-72
2023/04/18 03:28:05;;;;;;;35.22;13.98;;;5.20;99.90;;;;;;4951904;28;20059;-72
2023/04/18 03:30:35;;;;;;;30.25;13.95;;;5.20;99.90;;;;;;4949740;29;20143;-74
2023/04/18 03:33:04;;;;;;;30.85;12.30;;;5.30;99.90;;;;;;4928670;29;20086;-75
2023/04/18 03:35:34;;;;;;;30.25;15.57;;;5.30;99.90;;;;;;4936653;29;20125;-73
2023/04/18 03:38:02;;;;;;;31.85;14.25;;;5.30;99.90;;;;;;4932004;29;20074;-72
2023/04/18 03:40:34;;;;;;;29.52;13.10;;;5.30;99.90;;;;;;4923462;29;20398;-74
2023/04/18 03:43:11;;;;;;;23.23;13.27;;;5.30;99.90;;;;;;4950910;29;20058;-73
2023/04/18 03:45:39;;;;;;;36.08;12.95;;;5.30;99.90;;;;;;4950019;29;20070;-74
2023/04/18 03:48:07;;;;;;;30.45;12.60;;;5.30;99.90;;;;;;4936432;29;20065;-74
2023/04/18 03:50:39;;;;;;;32.90;14.07;;;5.30;99.90;;;;;;4952136;29;20043;-75
2023/04/18 03:53:10;;;;;;;44.35;12.75;;;5.40;99.90;;;;;;4954737;28;20102;-75
2023/04/18 03:55:39;;;;;;;41.78;13.65;;;5.40;99.90;;;;;;4951779;28;20115;-73
2023/04/18 03:58:08;;;;;;;36.90;13.55;;;5.50;99.90;;;;;;4936798;29;20472;-73
2023/04/18 04:00:36;;;;;;;28.23;13.98;;;5.50;99.90;;;;;;4952775;28;20393;-74
2023/04/18 04:03:09;;;;;;;30.42;12.45;;;5.50;99.90;;;;;;4954912;29;20087;-75
2023/04/18 04:05:37;;;;;;;39.13;13.75;;;5.50;99.90;;;;;;4910109;29;20106;-74
2023/04/18 04:08:06;;;;;;;28.23;12.15;;;5.60;99.90;;;;;;4953544;29;20062;-74
2023/04/18 04:10:34;;;;;;;35.08;12.10;;;5.60;99.90;;;;;;4951717;29;20055;-74
2023/04/18 04:13:02;;;;;;;48.50;15.13;;;5.60;99.90;;;;;;4954854;29;20063;-74
2023/04/18 04:15:32;;;;;;;38.80;13.93;;;5.70;99.90;;;;;;4919198;29;21066;-74
2023/04/18 04:18:07;;;;;;;166.35;21.73;;;5.70;99.90;;;;;;4936915;29;20198;-73
2023/04/18 04:20:38;;;;;;;;;;;5.80;99.90;;;;;;4942380;29;20275;-74
2023/04/18 04:23:26;;;;;;;162.07;20.88;;;5.90;99.90;;;;;;4935346;29;20446;-74
2023/04/18 04:25:55;;;;;;;45.35;14.20;;;6.00;99.90;;;;;;4919251;29;20130;-74
2023/04/18 04:28:36;;;;;;;164.30;20.85;;;6.00;98.70;;;;;;4935946;29;20501;-76
2023/04/18 04:31:07;;;;;;;82.63;16.17;;;6.20;97.80;;;;;;4936882;29;20055;-74
2023/04/18 04:33:37;;;;;;;43.88;13.30;;;6.20;96.40;;;;;;4919027;29;20048;-76
2023/04/18 04:36:08;;;;;;;120.38;17.45;;;6.30;95.20;;;;;;4942693;29;20047;-76
2023/04/18 04:38:39;;;;;;;44.10;13.60;;;6.40;94.20;;;;;;4944427;28;20137;-79
2023/04/18 04:41:08;;;;;;;60.65;14.18;;;6.50;93.40;;;;;;4938166;29;20102;-77
2023/04/18 04:43:40;;;;;;;58.55;13.15;;;6.60;92.30;;;;;;4937059;29;20050;-77
2023/04/18 04:46:12;;;;;;;33.88;11.98;;;6.70;92.00;;;;;;4928802;29;20615;-78
2023/04/18 04:48:41;;;;;;;35.42;11.93;;;6.80;91.30;;;;;;4956375;28;20054;-78
2023/04/18 04:51:08;;;;;;;39.75;11.82;;;6.90;90.50;;;;;;4945022;29;20059;-78
2023/04/18 04:53:36;;;;;;;27.77;11.25;;;7.00;88.80;;;;;;4934701;29;20505;-77
2023/04/18 04:56:04;;;;;;;31.95;10.68;;;7.10;86.90;;;;;;4929290;28;20081;-79
2023/04/18 04:58:43;;;;;;;36.72;11.73;;;7.10;84.90;;;;;;4939789;29;20047;-77
2023/04/18 05:01:21;;;;;;;33.40;11.00;;;7.20;83.70;;;;;;4937198;29;20040;-78
2023/04/18 05:03:52;;;;;;;32.90;10.30;;;7.30;82.60;;;;;;4934931;29;20158;-79
2023/04/18 05:06:21;;;;;;;24.23;9.68;;;7.40;82.50;;;;;;4933836;29;20078;-78
2023/04/18 05:08:52;;;;;;;32.17;10.02;;;7.40;80.70;;;;;;4932860;29;20109;-77
2023/04/18 05:11:20;;;;;;;32.38;10.38;;;7.50;80.30;;;;;;4951797;28;20058;-77
2023/04/18 05:13:47;;;;;;;38.60;10.07;;;7.60;78.70;;;;;;4949288;28;20138;-76
2023/04/18 05:16:15;;;;;;;60.78;11.07;;;7.70;77.40;;;;;;4948910;28;20121;-80
2023/04/18 05:18:44;;;;;;;33.10;9.73;;;7.70;76.10;;;;;;4948158;28;20058;-81
2023/04/18 05:21:12;;;;;;;38.55;9.68;;;7.90;74.50;;;;;;4935044;29;20055;-80
2023/04/18 05:23:40;;;;;;;39.78;9.43;;;8.00;74.10;;;;;;4934040;29;20416;-80
2023/04/18 05:26:07;;;;;;;31.65;8.68;;;8.10;73.60;;;;;;4933881;29;20122;-80
2023/04/18 05:28:35;;;;;;;39.83;9.52;;;8.40;72.90;;;;;;4932970;29;20039;-80
2023/04/18 05:31:02;;;;;;;77.53;11.45;;;8.90;71.80;;;;;;4923179;29;20106;-80
2023/04/18 05:33:31;;;;;;;74.35;10.68;;;9.60;71.00;;;;;;4935715;29;20079;-81
2023/04/18 05:36:00;;;;;;;36.13;9.13;;;10.20;68.80;;;;;;4950411;29;20062;-80
2023/04/18 05:38:28;;;;;;;28.52;8.23;;;10.80;65.70;;;;;;4935529;29;20078;-79
2023/04/18 05:40:59;;;;;;;32.42;8.48;;;11.30;62.40;;;;;;4935161;29;20047;-79
2023/04/18 05:43:26;;;;;;;35.47;9.02;;;11.80;60.70;;;;;;4954994;28;20098;-78
2023/04/18 05:45:54;;;;;;;23.45;8.82;;;12.10;58.90;;;;;;4933431;29;20070;-79
2023/04/18 05:48:23;;;;;;;44.45;8.07;;;12.40;57.50;;;;;;4933667;29;20051;-80
2023/04/18 05:50:51;;;;;;;34.75;8.70;;;12.60;56.50;;;;;;4934278;28;20059;-79
2023/04/18 05:53:20;;;;;;;50.28;9.82;;;12.70;56.10;;;;;;4953217;28;20051;-79
2023/04/18 05:55:47;;;;;;;36.83;8.45;;;12.90;55.40;;;;;;4934291;29;20635;-78
2023/04/18 05:58:18;;;;;;;31.80;8.25;;;13.10;55.40;;;;;;4952739;28;20146;-78
2023/04/18 06:00:46;;;;;;;36.85;8.23;;;13.30;54.50;;;;;;4953087;29;20058;-78
2023/04/18 06:03:14;;;;;;;41.28;9.30;;;13.50;53.80;;;;;;4952685;29;20055;-80
2023/04/18 06:05:42;;;;;;;27.48;7.60;;;13.70;53.40;;;;;;4933378;29;20070;-82
2023/04/18 06:08:12;;;;;;;99.80;11.63;;;13.90;52.90;;;;;;4952046;29;20047;-81
2023/04/18 06:10:41;;;;;;;40.88;8.43;;;14.10;52.10;;;;;;4936031;28;20046;-78
2023/04/18 06:13:09;;;;;;;25.13;7.18;;;14.20;51.70;;;;;;4970762;28;20058;-79
2023/04/18 06:15:36;;;;;;;26.67;7.88;;;14.40;51.20;;;;;;4960458;28;20137;-80
2023/04/18 06:18:04;;;;;;;19.38;7.10;;;14.50;51.40;;;;;;4956578;28;20125;-80
2023/04/18 06:20:32;;;;;;;25.77;7.60;;;14.60;50.30;;;;;;4962280;28;20106;-79
2023/04/18 06:22:59;;;;;;;25.15;7.30;;;14.80;50.40;;;;;;4942717;28;20052;-79
2023/04/18 06:25:27;;;;;;;19.48;7.82;;;14.80;49.40;;;;;;4944409;28;20075;-79
2023/04/18 06:27:56;;;;;;;170.27;15.25;;;14.90;50.10;;;;;;4917386;29;20067;-79
2023/04/18 06:30:24;;;;;;;21.75;7.00;;;15.10;50.40;;;;;;4951317;29;20054;-79
2023/04/18 06:32:51;;;;;;;22.23;8.70;;;15.30;49.70;;;;;;4953947;29;20473;-80
2023/04/18 06:35:19;;;;;;;22.30;7.20;;;15.40;48.80;;;;;;4955281;29;20051;-75
2023/04/18 06:37:47;;;;;;;19.40;7.93;;;15.70;49.00;;;;;;4938555;29;20055;-75
2023/04/18 06:40:18;;;;;;;22.67;7.78;;;16.00;49.00;;;;;;4956349;29;20067;-78
2023/04/18 06:42:47;;;;;;;16.33;6.32;;;16.40;48.10;;;;;;4955749;29;20067;-78
2023/04/18 06:45:16;;;;;;;16.15;6.00;;;16.70;47.40;;;;;;4938559;29;20051;-79
2023/04/18 06:47:44;;;;;;;19.63;5.60;;;16.90;46.70;;;;;;4938747;29;20178;-78
2023/04/18 06:50:12;;;;;;;15.13;6.10;;;16.90;46.30;;;;;;4956101;29;20051;-78
2023/04/18 06:52:43;;;;;;;11.18;5.35;;;16.60;45.90;;;;;;4928358;29;20098;-78
2023/04/18 06:55:11;;;;;;;131.85;10.27;;;16.60;46.50;;;;;;4952023;29;20055;-75
2023/04/18 06:57:40;;;;;;;11.93;5.20;;;17.00;46.50;;;;;;4941936;29;20094;-81
2023/04/18 07:00:10;;;;;;;17.60;5.88;;;17.30;45.50;;;;;;4942847;29;20413;-75
2023/04/18 07:02:39;;;;;;;19.38;6.00;;;17.70;45.50;;;;;;4945702;28;20114;-76
2023/04/18 07:05:11;;;;;;;17.83;6.00;;;18.10;44.30;;;;;;4954810;29;20062;-76
2023/04/18 07:07:39;;;;;;;11.60;6.28;;;18.40;44.50;;;;;;4939107;29;20086;-77
2023/04/18 07:10:10;;;;;;;15.95;6.18;;;18.60;43.80;;;;;;4939373;28;20065;-87
2023/04/18 07:12:38;;;;;;;9.23;5.68;;;18.70;43.50;;;;;;4975317;28;20063;-84
2023/04/18 07:15:07;;;;;;;14.23;5.80;;;18.90;42.80;;;;;;4945930;29;20086;-80
2023/04/18 07:18:21;;;;;;;67.07;8.25;;;19.20;43.50;;;;;;4936067;29;20065;-83
2023/04/18 07:20:51;;;;;;;10.35;6.53;;;19.40;43.10;;;;;;4944679;29;20047;-81
2023/04/18 07:23:21;;;;;;;12.82;5.88;;;19.70;42.70;;;;;;4953288;29;20047;-81
2023/04/18 07:25:49;;;;;;;20.17;6.60;;;20.00;42.80;;;;;;4959019;28;20047;-85
2023/04/18 07:28:16;;;;;;;45.67;7.88;;;20.30;41.40;;;;;;4957728;28;20556;-83
2023/04/18 07:30:44;;;;;;;48.53;8.98;;;20.50;41.00;;;;;;4939829;29;20105;-84
2023/04/18 07:33:12;;;;;;;19.13;6.10;;;20.60;41.80;;;;;;4947172;28;20067;-85
2023/04/18 07:35:41;;;;;;;15.30;5.63;;;20.70;41.60;;;;;;4955198;29;20145;-85
2023/04/18 07:38:10;;;;;;;14.15;4.80;;;20.90;41.10;;;;;;4932941;29;20051;-86
2023/04/18 07:40:38;;;;;;;16.75;5.13;;;21.20;40.50;;;;;;4949695;29;20146;-85
2023/04/18 07:43:06;;;;;;;12.10;5.15;;;21.50;39.80;;;;;;4948025;28;20063;-87
2023/04/18 07:45:35;;;;;;;11.88;4.80;;;21.80;39.90;;;;;;4942111;29;20142;-82
2023/04/18 07:48:02;;;;;;;87.93;7.72;;;22.10;39.00;;;;;;4935983;29;20149;-81
2023/04/18 07:50:30;;;;;;;16.90;4.68;;;22.50;39.00;;;;;;4950477;29;20067;-81
2023/04/18 07:53:00;;;;;;;32.50;4.97;;;22.60;38.70;;;;;;4935995;29;20544;-83
2023/04/18 07:55:27;;;;;;;31.15;5.25;;;22.50;38.50;;;;;;4918930;29;20102;-82
2023/04/18 07:57:55;;;;;;;10.40;3.83;;;22.20;38.60;;;;;;4933634;29;20531;-83
2023/04/18 08:00:22;;;;;;;10.82;3.95;;;21.80;38.50;;;;;;4949293;29;20239;-82
2023/04/18 08:02:50;;;;;;;10.65;3.58;;;21.40;38.80;;;;;;4961939;28;20110;-80
2023/04/18 08:05:23;;;;;;;17.60;3.70;;;20.80;39.30;;;;;;4952719;29;20050;-80
2023/04/18 08:07:51;;;;;;;11.95;3.90;;;20.30;39.80;;;;;;4944793;29;20677;-80
2023/04/18 08:10:20;;;;;;;10.65;3.70;;;20.20;40.00;;;;;;4954797;29;20043;-81
2023/04/18 08:12:48;;;;;;;6.40;3.55;;;20.40;40.40;;;;;;4955190;29;20058;-79
2023/04/18 08:15:16;;;;;;;7.93;3.35;;;20.70;39.60;;;;;;4935220;29;20087;-81
2023/04/18 08:17:44;;;;;;;7.32;3.47;;;21.00;38.90;;;;;;4937212;29;20051;-82
2023/04/18 08:20:13;;;;;;;9.60;3.70;;;21.40;39.20;;;;;;4920323;29;20142;-82
2023/04/18 08:22:40;;;;;;;9.60;3.17;;;21.50;37.80;;;;;;4946218;29;20531;-82
2023/04/18 08:25:09;;;;;;;7.63;3.13;;;21.40;37.90;;;;;;4936580;29;20074;-83
2023/04/18 08:27:38;;;;;;;55.85;5.78;;;21.40;38.00;;;;;;4921485;29;20549;-82
2023/04/18 08:30:07;;;;;;;24.30;3.63;;;21.20;38.50;;;;;;4953941;29;20389;-81
2023/04/18 08:32:36;;;;;;;11.15;3.67;;;21.10;37.80;;;;;;4937618;29;20055;-85
2023/04/18 08:35:05;;;;;;;23.35;3.38;;;21.20;38.00;;;;;;4959657;28;20047;-82
2023/04/18 08:37:34;;;;;;;9.63;3.97;;;21.70;38.30;;;;;;4954502;29;20404;-85
2023/04/18 08:40:04;;;;;;;13.50;3.90;;;22.50;37.70;;;;;;4943263;29;20070;-84
2023/04/18 08:42:33;;;;;;;11.60;3.75;;;23.30;36.10;;;;;;4953038;29;20129;-85
2023/04/18 08:45:03;;;;;;;21.90;5.50;;;23.50;36.30;;;;;;4952506;28;20488;-84
2023/04/18 08:47:32;;;;;;;13.07;5.13;;;23.80;36.20;;;;;;4954873;29;20092;-83
2023/04/18 08:50:01;;;;;;;11.38;5.15;;;24.00;36.00;;;;;;4937562;29;20523;-84
2023/04/18 08:52:32;;;;;;;31.33;6.80;;;24.00;35.80;;;;;;4954950;28;20050;-84
2023/04/18 08:55:01;;;;;;;10.25;4.40;;;24.10;36.10;;;;;;4954812;29;20102;-86
2023/04/18 08:57:32;;;;;;;22.45;5.20;;;24.40;34.70;;;;;;4954913;29;20051;-83
2023/04/18 09:00:00;;;;;;;18.40;3.83;;;24.30;35.80;;;;;;4936803;29;20055;-87
2023/04/18 09:02:41;;;;;;;11.63;3.50;;;24.00;34.80;;;;;;4954253;29;20046;-84
2023/04/18 09:05:13;;;;;;;8.95;3.70;;;23.70;35.30;;;;;;4954432;29;20054;-83
2023/04/18 09:07:42;;;;;;;13.38;4.10;;;23.70;35.30;;;;;;4937303;29;20065;-85
2023/04/18 09:10:11;;;;;;;12.10;3.40;;;23.60;35.30;;;;;;4937156;29;20062;-84
2023/04/18 09:12:48;;;;;;;14.73;3.08;;;23.50;35.00;;;;;;4954912;29;20114;-87
2023/04/18 09:15:19;;;;;;;13.38;3.28;;;23.40;35.10;;;;;;4921345;29;20051;-83
2023/04/18 09:17:52;;;;;;;30.30;4.45;;;23.30;34.70;;;;;;4954655;29;20055;-84
2023/04/18 09:20:36;;;;;;;11.98;3.40;;;23.40;35.70;;;;;;4920976;29;20408;-84
2023/04/18 09:23:09;;;;;;;7.90;2.97;;;23.50;35.10;;;;;;4954411;29;20059;-84
2023/04/18 09:25:43;;;;;;;19.42;3.00;;;23.50;35.20;;;;;;4936885;29;20050;-84
2023/04/18 09:28:23;;;;;;;13.40;2.53;;;23.60;35.60;;;;;;4954605;29;20142;-84
2023/04/18 09:30:52;;;;;;;10.30;3.00;;;23.90;34.50;;;;;;4953730;29;20047;-84
2023/04/18 09:33:27;;;;;;;9.20;3.05;;;23.80;34.00;;;;;;4954315;29;20059;-83
2023/04/18 09:35:55;;;;;;;9.88;3.10;;;23.60;35.40;;;;;;4936786;29;20047;-84
2023/04/18 09:38:41;;;;;;;15.68;3.40;;;23.60;34.40;;;;;;4953764;29;20062;-85
2023/04/18 09:41:09;;;;;;;15.80;3.50;;;23.50;35.20;;;;;;4953929;29;20151;-84
2023/04/18 09:43:37;;;;;;;11.07;3.72;;;23.80;35.30;;;;;;4937450;29;20086;-84
2023/04/18 09:46:05;;;;;;;9.43;3.50;;;24.00;34.60;;;;;;4953788;29;20085;-84
2023/04/18 09:48:34;;;;;;;9.30;3.35;;;24.00;34.60;;;;;;4954352;29;20054;-84
2023/04/18 09:51:07;;;;;;;11.32;4.13;;;24.10;33.10;;;;;;4952266;29;20066;-83
2023/04/18 09:53:39;;;;;;;14.73;4.05;;;24.30;34.10;;;;;;4953623;29;20047;-83
2023/04/18 09:56:15;;;;;;;12.73;3.15;;;24.80;34.50;;;;;;4953866;29;20062;-84
2023/04/18 09:58:47;;;;;;;9.15;3.47;;;25.10;33.50;;;;;;4952506;29;20103;-84
2023/04/18 10:01:14;;;;;;;13.35;3.70;;;25.50;33.90;;;;;;4954350;29;20061;-84
2023/04/18 10:03:47;;;;;;;11.18;3.58;;;25.50;33.20;;;;;;4954524;29;20098;-82
2023/04/18 10:06:16;;;;;;;15.63;4.43;;;25.80;32.90;;;;;;4954268;29;20074;-84
2023/04/18 10:08:45;;;;;;;14.93;5.28;;;25.90;33.40;;;;;;4951619;29;20530;-84
2023/04/18 10:11:13;;;;;;;16.67;5.65;;;25.50;33.40;;;;;;4953659;29;20085;-82
2023/04/18 10:13:43;;;;;;;13.60;5.50;;;25.10;33.10;;;;;;4936528;29;20055;-82
2023/04/18 10:16:11;;;;;;;12.45;5.18;;;24.70;33.60;;;;;;4953724;29;20051;-83
2023/04/18 10:18:39;;;;;;;14.20;4.50;;;24.40;33.50;;;;;;4948531;28;20050;-82
2023/04/18 10:21:09;;;;;;;6.57;3.88;;;24.00;34.30;;;;;;4961359;28;20154;-82
2023/04/18 10:23:39;;;;;;;12.77;4.68;;;23.60;34.10;;;;;;4933450;29;20079;-82
2023/04/18 10:26:08;;;;;;;10.73;4.22;;;23.40;35.30;;;;;;4921095;29;20052;-82
2023/04/18 10:28:55;;;;;;;13.75;3.65;;;23.50;35.60;;;;;;4936310;29;20051;-83
2023/04/18 10:31:24;;;;;;;13.45;3.53;;;23.80;35.10;;;;;;4947849;29;20051;-78
2023/04/18 10:33:54;;;;;;;29.65;4.97;;;24.10;34.60;;;;;;4935352;29;20611;-79
2023/04/18 10:36:29;;;;;;;12.00;3.75;;;24.20;34.40;;;;;;4942817;28;20512;-78
2023/04/18 10:39:01;;;;;;;9.80;4.20;;;24.40;33.20;;;;;;4948584;29;20139;-79
2023/04/18 10:41:31;;;;;;;9.73;4.10;;;24.40;33.60;;;;;;4951939;29;20512;-78
2023/04/18 10:44:18;;;;;;;17.45;3.70;;;24.40;33.10;;;;;;4913982;29;20074;-78
2023/04/18 10:47:21;;;;;;;17.17;3.17;;;24.20;33.20;;;;;;4951563;29;20420;-77
2023/04/18 10:50:03;;;;;;;6.40;3.08;;;24.20;33.20;;;;;;4851808;29;20589;-79
2023/04/18 10:52:36;;;;;;;9.15;2.80;;;24.30;32.70;;;;;;4866359;29;20059;-78
2023/04/18 10:55:18;;;;;;;10.45;2.65;;;24.40;33.30;;;;;;4917910;29;20508;-77
2023/04/18 10:57:47;;;;;;;9.75;3.03;;;24.40;33.30;;;;;;4948410;29;20102;-78
2023/04/18 11:00:20;;;;;;;5.97;2.50;;;24.20;33.20;;;;;;4931695;29;20043;-78
2023/04/18 11:02:54;;;;;;;15.13;2.72;;;24.00;33.10;;;;;;4947670;29;20047;-80
2023/04/18 11:05:25;;;;;;;12.27;2.63;;;24.10;33.90;;;;;;4952200;29;20043;-80
2023/04/18 11:07:55;;;;;;;9.98;2.60;;;24.20;33.30;;;;;;4951016;28;20051;-78
2023/04/18 11:10:28;;;;;;;20.02;3.00;;;24.40;32.40;;;;;;4952642;29;20142;-79
2023/04/18 11:13:03;;;;;;;8.25;1.92;;;24.50;31.30;;;;;;4936356;29;20051;-80
2023/04/18 11:15:30;;;;;;;7.63;2.33;;;25.00;31.50;;;;;;4955208;29;20050;-79
2023/04/18 11:18:01;;;;;;;7.80;2.20;;;25.50;32.20;;;;;;4922807;29;20444;-78
2023/04/18 11:20:29;;;;;;;10.63;2.35;;;26.20;30.50;;;;;;4953882;28;20059;-80
2023/04/18 11:23:00;;;;;;;7.55;2.13;;;26.80;31.00;;;;;;4922809;29;20055;-81
2023/04/18 11:25:30;;;;;;;2.30;2.03;;;27.40;30.80;;;;;;4932699;29;20119;-80
2023/04/18 11:28:01;;;;;;;9.27;2.00;;;28.00;29.00;;;;;;4955355;29;20071;-81
2023/04/18 11:30:36;;;;;;;7.40;1.80;;;28.50;28.50;;;;;;4950099;29;20109;-83
2023/04/18 11:33:07;;;;;;;3.92;1.67;;;28.50;28.40;;;;;;4920347;29;20052;-84
2023/04/18 11:35:38;;;;;;;8.70;2.10;;;28.60;28.30;;;;;;4952781;29;20057;-85
2023/04/18 11:38:09;;;;;;;4.13;1.90;;;28.80;28.40;;;;;;4936646;29;20079;-80
2023/04/18 11:40:36;;;;;;;4.80;1.83;;;28.90;28.20;;;;;;4933836;29;20087;-81
2023/04/18 11:43:07;;;;;;;7.45;2.10;;;29.50;27.50;;;;;;4937894;29;20043;-80
2023/04/18 11:45:35;;;;;;;7.03;2.13;;;29.70;27.90;;;;;;4937496;29;20051;-80
2023/04/18 11:48:04;;;;;;;7.53;2.35;;;29.60;28.00;;;;;;4950803;29;20583;-81
2023/04/18 11:50:37;;;;;;;10.05;2.30;;;29.60;27.60;;;;;;4936364;29;20146;-80
2023/04/18 11:53:04;;;;;;;9.45;2.60;;;29.70;27.50;;;;;;4952488;28;20484;-81
2023/04/18 11:55:33;;;;;;;9.25;2.05;;;29.40;27.60;;;;;;4942742;28;20045;-80
2023/04/18 11:58:02;;;;;;;22.23;3.00;;;29.30;27.70;;;;;;4955703;28;20062;-80
2023/04/18 12:00:40;;;;;;;17.02;2.50;;;29.30;27.10;;;;;;4955936;29;20043;-84
2023/04/18 12:03:17;;;;;;;6.03;1.85;;;29.40;27.50;;;;;;4956141;29;20102;-81
2023/04/18 12:05:45;;;;;;;10.15;2.10;;;29.70;27.00;;;;;;4953445;29;20449;-81
2023/04/18 12:08:18;;;;;;;9.77;1.90;;;29.60;26.60;;;;;;4954140;28;20082;-81
2023/04/18 12:10:51;;;;;;;9.00;2.22;;;29.60;27.30;;;;;;4937850;29;20200;-81
2023/04/18 12:13:24;;;;;;;16.65;2.22;;;29.50;27.00;;;;;;4954865;29;20104;-80
2023/04/18 12:15:52;;;;;;;15.82;2.47;;;29.70;27.20;;;;;;4949778;29;20051;-81
2023/04/18 12:18:20;;;;;;;14.88;2.15;;;29.80;26.70;;;;;;4922094;29;20050;-81
2023/04/18 12:20:51;;;;;;;16.67;2.35;;;30.00;27.40;;;;;;4951683;28;20066;-84
2023/04/18 12:23:36;;;;;;;9.35;2.95;;;30.00;27.20;;;;;;4951188;29;20057;-84
2023/04/18 12:26:07;;;;;;;11.15;1.90;;;29.90;26.30;;;;;;4944758;29;20138;-84
2023/04/18 12:28:35;;;;;;;7.75;1.75;;;29.40;26.70;;;;;;4953583;28;20500;-83
2023/04/18 12:31:06;;;;;;;9.75;2.20;;;28.60;26.80;;;;;;4953274;29;20047;-83
2023/04/18 12:33:34;;;;;;;10.90;2.25;;;28.40;27.20;;;;;;4949107;28;20051;-82
2023/04/18 12:36:04;;;;;;;14.18;1.85;;;28.00;26.90;;;;;;4934341;29;20456;-83
2023/04/18 12:38:31;;;;;;;14.43;2.13;;;27.70;26.80;;;;;;4934968;28;20081;-80
2023/04/18 12:40:59;;;;;;;4.93;2.00;;;27.50;27.40;;;;;;4936764;29;20098;-81
2023/04/18 12:43:28;;;;;;;14.57;2.00;;;27.30;27.40;;;;;;4945227;29;20054;-81
2023/04/18 12:45:55;;;;;;;6.35;1.75;;;26.90;27.70;;;;;;4935061;29;20047;-80
2023/04/18 12:48:23;;;;;;;9.40;2.10;;;26.60;28.10;;;;;;4935143;29;20074;-79
2023/04/18 12:50:50;;;;;;;5.55;2.00;;;26.50;27.80;;;;;;4934742;29;20074;-80
2023/04/18 12:53:18;;;;;;;7.03;1.90;;;26.20;27.60;;;;;;4948627;28;20082;-83